createdAt,value
2018-09-26T00:00:13.210Z,0
2018-09-26T00:01:13.294Z,0
2018-09-26T00:02:13.491Z,0
2018-09-26T00:03:13.496Z,0
2018-09-26T00:04:13.511Z,0
2018-09-26T00:05:13.562Z,0
2018-09-26T00:06:13.630Z,0
2018-09-26T00:07:13.783Z,0
2018-09-26T00:08:13.862Z,0
2018-09-26T00:09:13.976Z,0
2018-09-26T00:10:35.086Z,0
2018-09-26T00:11:35.081Z,0
2018-09-26T00:12:35.279Z,0
2018-09-26T00:13:35.384Z,0
2018-09-26T00:14:35.623Z,0
2018-09-26T00:15:35.714Z,0
2018-09-26T00:16:56.524Z,0
2018-09-26T00:17:57.577Z,0
2018-09-26T00:18:56.549Z,0
2018-09-26T00:19:56.954Z,0
2018-09-26T00:20:57.011Z,0
2018-09-26T00:21:57.275Z,0
2018-09-26T00:22:57.441Z,0
2018-09-26T00:24:18.776Z,0
2018-09-26T00:25:18.816Z,0
2018-09-26T00:26:18.967Z,0
2018-09-26T00:27:19.249Z,0
2018-09-26T00:28:19.477Z,0
2018-09-26T00:30:00.165Z,0
2018-09-26T00:31:00.193Z,0
2018-09-26T00:32:00.367Z,0
2018-09-26T00:33:00.666Z,0
2018-09-26T00:34:00.574Z,0
2018-09-26T00:35:00.742Z,0
2018-09-26T00:36:21.994Z,0
2018-09-26T00:37:22.069Z,0
2018-09-26T00:38:22.174Z,0
2018-09-26T00:39:22.126Z,0
2018-09-26T00:40:22.241Z,0
2018-09-26T00:41:22.480Z,0
2018-09-26T00:42:22.420Z,0
2018-09-26T00:43:22.366Z,0
2018-09-26T00:44:23.487Z,0
2018-09-26T00:45:22.397Z,0
2018-09-26T00:46:22.609Z,0
2018-09-26T00:47:21.770Z,0
2018-09-26T00:48:22.091Z,0
2018-09-26T00:49:22.291Z,0
2018-09-26T00:50:22.512Z,0
2018-09-26T00:51:23.181Z,0
2018-09-26T00:52:22.328Z,0
2018-09-26T00:53:22.103Z,0
2018-09-26T00:54:22.211Z,0
2018-09-26T00:55:22.254Z,0
2018-09-26T00:56:22.338Z,0
2018-09-26T00:57:22.609Z,0
2018-09-26T00:58:22.739Z,0
2018-09-26T00:59:21.842Z,0
2018-09-26T01:00:21.924Z,0
2018-09-26T01:01:42.814Z,0
2018-09-26T01:02:43.867Z,0
2018-09-26T01:04:03.774Z,0
2018-09-26T01:05:04.913Z,0
2018-09-26T01:06:04.086Z,0
2018-09-26T01:07:04.405Z,0
2018-09-26T01:08:04.594Z,0
2018-09-26T01:09:03.759Z,0
2018-09-26T01:10:03.915Z,0
2018-09-26T01:11:04.064Z,0
2018-09-26T01:12:04.508Z,0
2018-09-26T01:13:04.550Z,0
2018-09-26T01:14:04.574Z,0
2018-09-26T01:15:04.828Z,0
2018-09-26T01:16:04.017Z,0
2018-09-26T01:17:04.228Z,0
2018-09-26T01:18:04.366Z,0
2018-09-26T01:19:04.245Z,0
2018-09-26T01:20:04.490Z,0
2018-09-26T01:21:25.611Z,0
2018-09-26T01:22:46.984Z,0
2018-09-26T01:23:47.269Z,0
2018-09-26T01:24:47.549Z,0
2018-09-26T01:25:47.696Z,0
2018-09-26T01:26:46.877Z,0
2018-09-26T01:27:46.964Z,0
2018-09-26T01:28:47.286Z,0
2018-09-26T01:29:47.221Z,0
2018-09-26T01:30:47.418Z,0
2018-09-26T01:31:48.522Z,0
2018-09-26T01:32:47.743Z,0
2018-09-26T01:33:46.880Z,0
2018-09-26T01:35:07.770Z,0
2018-09-26T01:36:07.746Z,0
2018-09-26T01:37:28.807Z,0
2018-09-26T01:38:28.830Z,0
2018-09-26T01:39:49.635Z,0
2018-09-26T01:40:49.828Z,0
2018-09-26T01:41:49.737Z,0
2018-09-26T01:42:49.815Z,0
2018-09-26T01:43:49.965Z,0
2018-09-26T01:44:50.268Z,0
2018-09-26T01:45:50.195Z,0
2018-09-26T01:46:50.078Z,0
2018-09-26T01:47:50.347Z,0
2018-09-26T01:48:49.645Z,0
2018-09-26T01:50:10.710Z,0
2018-09-26T01:51:10.994Z,0
2018-09-26T01:52:11.044Z,0
2018-09-26T01:53:11.346Z,0
2018-09-26T01:54:10.724Z,0
2018-09-26T01:55:32.496Z,0
2018-09-26T01:56:32.714Z,0
2018-09-26T01:57:32.902Z,0
2018-09-26T01:58:33.221Z,0
2018-09-26T01:59:33.283Z,0
2018-09-26T02:00:33.282Z,0
2018-09-26T02:01:33.351Z,0
2018-09-26T02:02:33.512Z,0
2018-09-26T02:03:32.423Z,0
2018-09-26T02:04:54.364Z,0
2018-09-26T02:05:55.570Z,0
2018-09-26T02:07:15.340Z,0
2018-09-26T02:08:16.581Z,0
2018-09-26T02:09:15.774Z,0
2018-09-26T02:10:15.875Z,0
2018-09-26T02:11:16.083Z,0
2018-09-26T02:12:37.131Z,0
2018-09-26T02:14:55.064Z,0
2018-09-26T02:16:13.722Z,0
2018-09-26T02:17:14.529Z,0
2018-09-26T02:18:18.579Z,0
2018-09-26T02:19:17.376Z,0
2018-09-26T02:20:14.218Z,0
2018-09-26T02:21:15.429Z,0
2018-09-26T02:22:14.129Z,0
2018-09-26T02:23:13.028Z,0
2018-09-26T02:24:13.172Z,0
2018-09-26T02:25:33.982Z,0
2018-09-26T02:26:30.902Z,0
2018-09-26T02:27:30.943Z,0
2018-09-26T02:28:30.936Z,0
2018-09-26T02:29:51.641Z,0
2018-09-26T02:31:20.379Z,0
2018-09-26T02:32:20.551Z,0
2018-09-26T02:33:41.911Z,0
2018-09-26T02:34:41.999Z,0
2018-09-26T02:35:42.035Z,0
2018-09-26T02:36:41.977Z,0
2018-09-26T02:37:41.965Z,0
2018-09-26T02:38:42.101Z,0
2018-09-26T02:39:42.477Z,0
2018-09-26T02:40:42.448Z,0
2018-09-26T02:41:42.521Z,0
2018-09-26T02:42:42.592Z,0
2018-09-26T02:43:42.682Z,0
2018-09-26T02:45:02.442Z,0
2018-09-26T02:46:03.595Z,0
2018-09-26T02:47:02.575Z,0
2018-09-26T02:48:02.633Z,0
2018-09-26T02:49:02.903Z,0
2018-09-26T02:50:24.625Z,0
2018-09-26T02:51:24.895Z,0
2018-09-26T02:52:23.953Z,0
2018-09-26T02:53:24.352Z,0
2018-09-26T02:54:24.468Z,0
2018-09-26T02:55:24.448Z,0
2018-09-26T02:56:24.498Z,0
2018-09-26T02:57:24.727Z,0
2018-09-26T02:58:29.332Z,0
2018-09-26T02:59:28.000Z,0
2018-09-26T03:00:24.126Z,0
2018-09-26T03:01:24.227Z,0
2018-09-26T03:02:24.456Z,0
2018-09-26T03:03:24.640Z,0
2018-09-26T03:04:25.865Z,0
2018-09-26T03:05:24.078Z,0
2018-09-26T03:06:24.301Z,0
2018-09-26T03:07:24.507Z,0
2018-09-26T03:08:24.914Z,0
2018-09-26T03:09:24.035Z,0
2018-09-26T03:10:24.151Z,0
2018-09-26T03:11:28.323Z,0
2018-09-26T03:12:24.460Z,0
2018-09-26T03:13:45.530Z,0
2018-09-26T03:14:45.790Z,0
2018-09-26T03:15:45.815Z,0
2018-09-26T03:16:45.786Z,0
2018-09-26T03:17:45.818Z,0
2018-09-26T03:18:46.318Z,0
2018-09-26T03:19:46.221Z,0
2018-09-26T03:20:46.352Z,0
2018-09-26T03:21:45.420Z,0
2018-09-26T03:22:45.830Z,0
2018-09-26T03:23:45.731Z,0
2018-09-26T03:24:45.936Z,0
2018-09-26T03:25:46.015Z,0
2018-09-26T03:26:46.341Z,0
2018-09-26T03:27:46.467Z,0
2018-09-26T03:28:45.668Z,0
2018-09-26T03:29:45.840Z,0
2018-09-26T03:30:46.006Z,0
2018-09-26T03:31:46.409Z,0
2018-09-26T03:32:45.581Z,0
2018-09-26T03:33:45.727Z,0
2018-09-26T03:35:06.921Z,0
2018-09-26T03:36:06.867Z,0
2018-09-26T03:37:07.289Z,0
2018-09-26T03:38:07.490Z,0
2018-09-26T03:39:07.294Z,0
2018-09-26T03:40:07.195Z,0
2018-09-26T03:41:07.368Z,0
2018-09-26T03:42:07.461Z,0
2018-09-26T03:43:07.680Z,0
2018-09-26T03:44:06.738Z,0
2018-09-26T03:45:48.383Z,0
2018-09-26T03:47:31.419Z,0
2018-09-26T03:48:31.712Z,0
2018-09-26T03:50:01.362Z,0
2018-09-26T03:51:01.485Z,0
2018-09-26T03:52:01.357Z,0
2018-09-26T03:53:01.247Z,0
2018-09-26T03:54:01.325Z,0
2018-09-26T03:55:01.419Z,0
2018-09-26T03:56:01.512Z,0
2018-09-26T03:57:01.669Z,0
2018-09-26T03:58:00.991Z,0
2018-09-26T03:59:01.139Z,0
2018-09-26T04:00:01.775Z,0
2018-09-26T04:01:22.018Z,0
2018-09-26T04:02:22.176Z,0
2018-09-26T04:03:22.263Z,0
2018-09-26T04:04:22.533Z,0
2018-09-26T04:05:22.720Z,0
2018-09-26T04:06:22.844Z,0
2018-09-26T04:07:23.074Z,0
2018-09-26T04:08:22.315Z,0
2018-09-26T04:09:22.525Z,0
2018-09-26T04:10:43.571Z,0
2018-09-26T04:11:43.617Z,0
2018-09-26T04:12:43.954Z,0
2018-09-26T04:13:44.355Z,0
2018-09-26T04:14:44.459Z,0
2018-09-26T04:15:56.834Z,0
2018-09-26T04:16:45.248Z,0
2018-09-26T04:17:44.454Z,0
2018-09-26T04:18:43.549Z,0
2018-09-26T04:19:43.690Z,0
2018-09-26T04:20:43.757Z,0
2018-09-26T04:21:44.048Z,0
2018-09-26T04:22:44.060Z,0
2018-09-26T04:23:44.241Z,0
2018-09-26T04:25:05.735Z,0
2018-09-26T04:26:06.012Z,0
2018-09-26T04:27:50.105Z,0
2018-09-26T04:28:49.493Z,0
2018-09-26T04:30:11.911Z,0
2018-09-26T04:31:12.647Z,0
2018-09-26T04:32:11.728Z,0
2018-09-26T04:33:12.077Z,0
2018-09-26T04:34:11.848Z,0
2018-09-26T04:35:32.695Z,0
2018-09-26T04:36:33.921Z,0
2018-09-26T04:37:33.127Z,0
2018-09-26T04:38:33.272Z,0
2018-09-26T04:39:33.254Z,0
2018-09-26T04:40:33.392Z,0
2018-09-26T04:41:33.685Z,0
2018-09-26T04:42:33.593Z,0
2018-09-26T04:43:33.609Z,0
2018-09-26T04:44:33.796Z,0
2018-09-26T04:45:54.021Z,0
2018-09-26T04:46:55.148Z,0
2018-09-26T04:47:54.144Z,0
2018-09-26T04:48:54.465Z,0
2018-09-26T04:49:54.254Z,0
2018-09-26T04:50:54.960Z,0
2018-09-26T04:51:54.128Z,0
2018-09-26T04:52:54.227Z,0
2018-09-26T04:54:15.072Z,0
2018-09-26T04:55:15.365Z,0
2018-09-26T04:56:15.639Z,0
2018-09-26T04:57:36.350Z,0
2018-09-26T04:58:37.187Z,0
2018-09-26T04:59:37.117Z,0
2018-09-26T05:00:37.206Z,0
2018-09-26T05:01:37.123Z,0
2018-09-26T05:02:37.417Z,0
2018-09-26T05:03:36.790Z,0
2018-09-26T05:04:36.912Z,0
2018-09-26T05:05:37.144Z,0
2018-09-26T05:06:37.345Z,0
2018-09-26T05:07:36.391Z,0
2018-09-26T05:08:36.728Z,0
2018-09-26T05:09:36.899Z,0
2018-09-26T05:10:37.068Z,0
2018-09-26T05:11:36.926Z,0
2018-09-26T05:12:37.167Z,1
2018-09-26T05:13:37.284Z,1
2018-09-26T05:14:36.453Z,1
2018-09-26T05:15:36.630Z,1
2018-09-26T05:17:39.980Z,1
2018-09-26T05:18:41.280Z,1
2018-09-26T05:19:40.121Z,1
2018-09-26T05:20:40.186Z,2
2018-09-26T05:21:40.334Z,2
2018-09-26T05:22:40.373Z,2
2018-09-26T05:23:40.946Z,2
2018-09-26T05:24:40.058Z,2
2018-09-26T05:25:40.071Z,3
2018-09-26T05:26:40.187Z,3
2018-09-26T05:27:40.213Z,3
2018-09-26T05:28:40.591Z,4
2018-09-26T05:29:39.955Z,4
2018-09-26T05:31:00.902Z,5
2018-09-26T05:32:02.111Z,5
2018-09-26T05:33:01.400Z,6
2018-09-26T05:34:01.651Z,6
2018-09-26T05:35:01.588Z,7
2018-09-26T05:36:01.736Z,7
2018-09-26T05:37:01.937Z,8
2018-09-26T05:38:01.257Z,8
2018-09-26T05:39:01.802Z,8
2018-09-26T05:40:02.027Z,9
2018-09-26T05:41:25.103Z,10
2018-09-26T05:42:25.211Z,10
2018-09-26T05:43:25.516Z,11
2018-09-26T05:44:46.834Z,12
2018-09-26T05:45:47.186Z,12
2018-09-26T05:46:47.801Z,13
2018-09-26T05:47:46.894Z,13
2018-09-26T05:48:47.187Z,14
2018-09-26T05:49:47.429Z,15
2018-09-26T05:50:47.914Z,15
2018-09-26T05:52:08.349Z,16
2018-09-26T05:53:08.717Z,17
2018-09-26T05:54:08.918Z,18
2018-09-26T05:55:08.248Z,18
2018-09-26T05:56:29.947Z,19
2018-09-26T05:57:30.186Z,20
2018-09-26T05:58:30.080Z,21
2018-09-26T05:59:29.717Z,22
2018-09-26T06:00:29.956Z,23
2018-09-26T06:01:30.270Z,24
2018-09-26T06:02:29.391Z,25
2018-09-26T06:03:29.758Z,26
2018-09-26T06:04:29.963Z,27
2018-09-26T06:05:30.178Z,28
2018-09-26T06:06:29.478Z,29
2018-09-26T06:07:29.779Z,31
2018-09-26T06:08:30.211Z,32
2018-09-26T06:09:29.217Z,33
2018-09-26T06:10:29.507Z,35
2018-09-26T06:11:29.645Z,36
2018-09-26T06:12:29.946Z,37
2018-09-26T06:13:30.207Z,37
2018-09-26T06:14:29.658Z,38
2018-09-26T06:15:30.087Z,38
2018-09-26T06:16:29.229Z,39
2018-09-26T06:17:29.407Z,39
2018-09-26T06:18:29.687Z,40
2018-09-26T06:19:30.045Z,41
2018-09-26T06:20:29.290Z,42
2018-09-26T06:21:29.669Z,44
2018-09-26T06:22:29.758Z,45
2018-09-26T06:23:29.805Z,47
2018-09-26T06:24:30.130Z,49
2018-09-26T06:25:30.367Z,50
2018-09-26T06:26:29.683Z,51
2018-09-26T06:27:30.136Z,53
2018-09-26T06:28:29.327Z,54
2018-09-26T06:29:29.468Z,55
2018-09-26T06:30:29.795Z,55
2018-09-26T06:31:51.250Z,56
2018-09-26T06:32:51.486Z,57
2018-09-26T06:33:52.250Z,58
2018-09-26T06:34:51.777Z,60
2018-09-26T06:35:52.058Z,61
2018-09-26T06:36:51.248Z,62
2018-09-26T06:37:51.447Z,63
2018-09-26T06:39:34.007Z,67
2018-09-26T06:40:35.704Z,69
2018-09-26T06:41:56.276Z,72
2018-09-26T06:42:57.527Z,72
2018-09-26T06:43:58.435Z,73
2018-09-26T06:45:01.797Z,74
2018-09-26T06:46:42.545Z,75
2018-09-26T06:47:40.570Z,75
2018-09-26T06:49:02.360Z,76
2018-09-26T06:50:02.547Z,77
2018-09-26T06:51:01.948Z,78
2018-09-26T06:52:01.377Z,78
2018-09-26T06:53:02.376Z,80
2018-09-26T06:54:02.184Z,81
2018-09-26T06:55:01.811Z,82
2018-09-26T06:56:20.913Z,85
2018-09-26T06:57:20.825Z,88
2018-09-26T06:58:20.334Z,88
2018-09-26T06:59:19.808Z,91
2018-09-26T07:00:20.466Z,91
2018-09-26T07:01:20.373Z,90
2018-09-26T07:03:02.549Z,91
2018-09-26T07:04:03.218Z,91
2018-09-26T07:05:02.954Z,92
2018-09-26T07:06:03.249Z,93
2018-09-26T07:07:24.016Z,95
2018-09-26T07:08:24.483Z,99
2018-09-26T07:09:47.838Z,104
2018-09-26T07:10:47.151Z,108
2018-09-26T07:11:49.292Z,108
2018-09-26T07:12:47.590Z,107
2018-09-26T07:13:47.603Z,106
2018-09-26T07:14:47.058Z,105
2018-09-26T07:15:47.343Z,106
2018-09-26T07:16:52.663Z,105
2018-09-26T07:17:47.166Z,106
2018-09-26T07:18:48.240Z,108
2018-09-26T07:20:19.738Z,110
2018-09-26T07:21:19.086Z,109
2018-09-26T07:22:19.328Z,110
2018-09-26T07:23:40.707Z,113
2018-09-26T07:24:20.598Z,115
2018-09-26T07:25:20.211Z,118
2018-09-26T07:26:20.230Z,119
2018-09-26T07:27:19.687Z,119
2018-09-26T07:28:20.101Z,121
2018-09-26T07:29:19.605Z,123
2018-09-26T07:30:20.110Z,124
2018-09-26T07:31:19.492Z,125
2018-09-26T07:32:19.883Z,126
2018-09-26T07:33:19.113Z,126
2018-09-26T07:34:50.065Z,129
2018-09-26T07:35:50.731Z,131
2018-09-26T07:36:50.033Z,131
2018-09-26T07:37:50.487Z,133
2018-09-26T07:38:50.791Z,136
2018-09-26T07:40:32.215Z,134
2018-09-26T07:41:32.700Z,143
2018-09-26T07:42:33.047Z,144
2018-09-26T07:43:32.480Z,145
2018-09-26T07:45:36.015Z,143
2018-09-26T07:46:57.779Z,141
2018-09-26T07:47:58.073Z,137
2018-09-26T07:49:20.452Z,127
2018-09-26T07:50:21.906Z,130
2018-09-26T07:51:21.201Z,135
2018-09-26T07:52:20.651Z,140
2018-09-26T07:53:21.121Z,148
2018-09-26T07:54:21.222Z,154
2018-09-26T07:55:42.139Z,153
2018-09-26T07:56:42.603Z,164
2018-09-26T07:58:03.638Z,153
2018-09-26T07:59:03.950Z,155
2018-09-26T08:00:04.575Z,160
2018-09-26T08:01:04.168Z,160
2018-09-26T08:02:04.178Z,159
2018-09-26T08:03:03.580Z,167
2018-09-26T08:04:03.980Z,161
2018-09-26T08:05:04.232Z,161
2018-09-26T08:06:03.459Z,163
2018-09-26T08:07:03.772Z,177
2018-09-26T08:08:04.378Z,177
2018-09-26T08:09:04.350Z,182
2018-09-26T08:10:03.541Z,207
2018-09-26T08:11:03.835Z,208
2018-09-26T08:12:04.219Z,207
2018-09-26T08:13:03.458Z,203
2018-09-26T08:14:03.678Z,210
2018-09-26T08:15:04.111Z,219
2018-09-26T08:16:03.279Z,212
2018-09-26T08:17:03.605Z,201
2018-09-26T08:18:25.234Z,196
2018-09-26T08:19:25.641Z,189
2018-09-26T08:20:25.999Z,190
2018-09-26T08:21:46.614Z,187
2018-09-26T08:22:47.227Z,190
2018-09-26T08:23:46.742Z,194
2018-09-26T08:24:47.043Z,184
2018-09-26T08:25:47.420Z,181
2018-09-26T08:27:07.804Z,170
2018-09-26T08:28:08.125Z,161
2018-09-26T08:29:08.577Z,156
2018-09-26T08:30:29.128Z,154
2018-09-26T08:31:50.495Z,148
2018-09-26T08:32:50.833Z,150
2018-09-26T08:33:51.175Z,150
2018-09-26T08:34:50.684Z,151
2018-09-26T08:35:50.972Z,153
2018-09-26T08:36:51.163Z,157
2018-09-26T08:37:50.536Z,157
2018-09-26T08:38:50.846Z,156
2018-09-26T08:39:51.367Z,156
2018-09-26T08:40:50.691Z,157
2018-09-26T08:41:50.990Z,160
2018-09-26T08:42:50.469Z,168
2018-09-26T08:43:50.869Z,173
2018-09-26T08:44:52.420Z,175
2018-09-26T08:45:50.811Z,182
2018-09-26T08:46:51.219Z,180
2018-09-26T08:47:50.630Z,178
2018-09-26T08:48:51.185Z,175
2018-09-26T08:49:50.849Z,181
2018-09-26T08:50:51.152Z,195
2018-09-26T08:51:50.290Z,204
2018-09-26T08:52:50.625Z,209
2018-09-26T08:53:51.247Z,204
2018-09-26T08:54:51.553Z,198
2018-09-26T08:55:50.991Z,200
2018-09-26T08:56:51.111Z,208
2018-09-26T08:57:50.615Z,214
2018-09-26T08:58:50.971Z,227
2018-09-26T08:59:51.523Z,229
2018-09-26T09:00:52.626Z,249
2018-09-26T09:01:50.980Z,271
2018-09-26T09:02:51.202Z,261
2018-09-26T09:03:50.588Z,260
2018-09-26T09:04:51.071Z,252
2018-09-26T09:05:50.338Z,257
2018-09-26T09:06:50.948Z,275
2018-09-26T09:08:11.477Z,276
2018-09-26T09:09:11.897Z,279
2018-09-26T09:10:12.199Z,262
2018-09-26T09:11:11.605Z,305
2018-09-26T09:12:12.295Z,316
2018-09-26T09:13:11.497Z,261
2018-09-26T09:14:11.737Z,280
2018-09-26T09:15:12.260Z,326
2018-09-26T09:16:32.930Z,312
2018-09-26T09:17:54.301Z,294
2018-09-26T09:19:15.856Z,238
2018-09-26T09:20:16.289Z,245
2018-09-26T09:21:16.546Z,252
2018-09-26T09:22:15.907Z,250
2018-09-26T09:23:16.390Z,244
2018-09-26T09:24:16.722Z,251
2018-09-26T09:25:16.000Z,256
2018-09-26T09:26:16.296Z,250
2018-09-26T09:27:37.912Z,227
2018-09-26T09:29:20.427Z,223
2018-09-26T09:30:42.138Z,216
2018-09-26T09:31:42.485Z,225
2018-09-26T09:32:42.736Z,221
2018-09-26T09:33:42.430Z,218
2018-09-26T09:34:42.579Z,231
2018-09-26T09:36:03.188Z,233
2018-09-26T09:37:03.476Z,248
2018-09-26T09:38:04.031Z,253
2018-09-26T09:39:03.678Z,262
2018-09-26T09:40:03.927Z,279
2018-09-26T09:41:03.350Z,284
2018-09-26T09:42:04.189Z,280
2018-09-26T09:43:03.701Z,275
2018-09-26T09:44:04.132Z,279
2018-09-26T09:45:03.357Z,283
2018-09-26T09:46:24.932Z,289
2018-09-26T09:47:25.474Z,288
2018-09-26T09:48:25.722Z,283
2018-09-26T09:49:24.891Z,294
2018-09-26T09:50:25.442Z,298
2018-09-26T09:51:25.889Z,293
2018-09-26T09:52:25.190Z,302
2018-09-26T09:53:25.951Z,287
2018-09-26T09:54:25.364Z,281
2018-09-26T09:55:26.787Z,293
2018-09-26T09:56:25.154Z,305
2018-09-26T09:57:25.802Z,302
2018-09-26T09:58:25.072Z,270
2018-09-26T09:59:26.194Z,274
2018-09-26T10:00:26.684Z,316
2018-09-26T10:01:25.232Z,318
2018-09-26T10:02:46.752Z,331
2018-09-26T10:04:08.630Z,318
2018-09-26T10:05:08.897Z,308
2018-09-26T10:06:09.114Z,304
2018-09-26T10:07:09.516Z,293
2018-09-26T10:08:09.135Z,293
2018-09-26T10:09:09.355Z,293
2018-09-26T10:10:08.744Z,298
2018-09-26T10:11:09.128Z,299
2018-09-26T10:12:09.721Z,301
2018-09-26T10:13:08.849Z,302
2018-09-26T10:14:09.378Z,287
2018-09-26T10:15:08.950Z,296
2018-09-26T10:16:30.602Z,316
2018-09-26T10:17:31.256Z,337
2018-09-26T10:18:30.631Z,344
2018-09-26T10:19:31.144Z,344
2018-09-26T10:20:53.227Z,318
2018-09-26T10:21:53.870Z,352
2018-09-26T10:22:53.423Z,334
2018-09-26T10:23:53.814Z,321
2018-09-26T10:24:54.244Z,292
2018-09-26T10:25:53.651Z,324
2018-09-26T10:26:54.101Z,362
2018-09-26T10:27:53.858Z,376
2018-09-26T10:28:54.383Z,400
2018-09-26T10:29:53.885Z,419
2018-09-26T10:30:54.444Z,418
2018-09-26T10:31:53.838Z,400
2018-09-26T10:32:53.771Z,402
2018-09-26T10:33:53.983Z,407
2018-09-26T10:34:53.475Z,402
2018-09-26T10:35:54.069Z,401
2018-09-26T10:36:53.781Z,410
2018-09-26T10:37:54.086Z,419
2018-09-26T10:38:53.637Z,429
2018-09-26T10:39:54.147Z,394
2018-09-26T10:40:53.687Z,414
2018-09-26T10:41:54.116Z,442
2018-09-26T10:42:53.570Z,393
2018-09-26T10:44:58.280Z,348
2018-09-26T10:45:58.630Z,363
2018-09-26T10:46:58.833Z,391
2018-09-26T10:47:58.245Z,336
2018-09-26T10:49:41.029Z,339
2018-09-26T10:50:41.706Z,394
2018-09-26T10:51:41.103Z,436
2018-09-26T10:53:02.625Z,462
2018-09-26T10:54:02.985Z,491
2018-09-26T10:55:03.428Z,473
2018-09-26T10:56:02.666Z,482
2018-09-26T10:57:03.204Z,452
2018-09-26T10:58:02.656Z,438
2018-09-26T10:59:03.665Z,429
2018-09-26T11:00:03.296Z,397
2018-09-26T11:01:23.926Z,428
2018-09-26T11:02:45.844Z,446
2018-09-26T11:03:46.366Z,454
2018-09-26T11:05:29.976Z,523
2018-09-26T11:06:30.373Z,520
2018-09-26T11:07:29.532Z,495
2018-09-26T11:08:30.568Z,484
2018-09-26T11:09:30.098Z,458
2018-09-26T11:10:29.628Z,406
2018-09-26T11:11:29.800Z,419
2018-09-26T11:12:30.213Z,425
2018-09-26T11:13:51.368Z,454
2018-09-26T11:14:50.580Z,444
2018-09-26T11:15:50.766Z,420
2018-09-26T11:16:51.292Z,454
2018-09-26T11:17:51.527Z,487
2018-09-26T11:18:51.001Z,483
2018-09-26T11:19:51.341Z,473
2018-09-26T11:20:50.800Z,465
2018-09-26T11:22:12.205Z,365
2018-09-26T11:23:12.694Z,415
2018-09-26T11:25:16.829Z,373
2018-09-26T11:26:17.371Z,391
2018-09-26T11:27:16.962Z,427
2018-09-26T11:28:17.637Z,391
2018-09-26T11:29:38.481Z,436
2018-09-26T11:30:38.864Z,421
2018-09-26T11:31:39.200Z,440
2018-09-26T11:32:38.599Z,462
2018-09-26T11:33:39.319Z,429
2018-09-26T11:34:38.944Z,367
2018-09-26T11:35:39.586Z,388
2018-09-26T11:36:39.527Z,382
2018-09-26T11:37:38.897Z,385
2018-09-26T11:38:39.909Z,442
2018-09-26T11:39:39.046Z,430
2018-09-26T11:40:38.471Z,417
2018-09-26T11:41:39.241Z,471
2018-09-26T11:42:38.693Z,458
2018-09-26T11:43:39.275Z,453
2018-09-26T11:44:38.794Z,477
2018-09-26T11:45:40.045Z,493
2018-09-26T11:46:38.383Z,482
2018-09-26T11:47:38.849Z,460
2018-09-26T11:48:39.389Z,419
2018-09-26T11:49:38.710Z,451
2018-09-26T11:50:38.911Z,451
2018-09-26T11:51:39.381Z,496
2018-09-26T11:52:38.763Z,437
2018-09-26T11:53:39.409Z,424
2018-09-26T11:54:38.818Z,443
2018-09-26T11:56:02.416Z,460
2018-09-26T11:57:02.882Z,472
2018-09-26T11:58:02.905Z,490
2018-09-26T11:59:02.625Z,507
2018-09-26T12:00:03.677Z,486
2018-09-26T12:01:03.124Z,418
2018-09-26T12:02:02.493Z,414
2018-09-26T12:03:02.783Z,437
2018-09-26T12:04:02.980Z,434
2018-09-26T12:05:02.360Z,452
2018-09-26T12:06:02.688Z,446
2018-09-26T12:07:03.407Z,441
2018-09-26T12:08:03.002Z,453
2018-09-26T12:09:02.333Z,464
2018-09-26T12:10:24.278Z,439
2018-09-26T12:11:24.768Z,444
2018-09-26T12:12:24.507Z,453
2018-09-26T12:13:24.101Z,443
2018-09-26T12:14:25.435Z,464
2018-09-26T12:15:46.021Z,474
2018-09-26T12:16:46.434Z,456
2018-09-26T12:17:46.637Z,418
2018-09-26T12:18:47.212Z,440
2018-09-26T12:19:47.775Z,452
2018-09-26T12:20:46.439Z,466
2018-09-26T12:21:46.728Z,479
2018-09-26T12:22:46.239Z,491
2018-09-26T12:23:46.778Z,488
2018-09-26T12:24:46.836Z,471
2018-09-26T12:26:08.813Z,474
2018-09-26T12:27:28.977Z,496
2018-09-26T12:28:29.202Z,494
2018-09-26T12:29:29.837Z,456
2018-09-26T12:30:29.219Z,418
2018-09-26T12:31:29.754Z,378
2018-09-26T12:32:29.181Z,381
2018-09-26T12:33:29.843Z,378
2018-09-26T12:34:29.502Z,342
2018-09-26T12:35:29.901Z,371
2018-09-26T12:36:29.492Z,369
2018-09-26T12:37:30.154Z,379
2018-09-26T12:38:29.531Z,324
2018-09-26T12:39:30.100Z,337
2018-09-26T12:40:29.525Z,318
2018-09-26T12:41:30.407Z,425
2018-09-26T12:42:29.787Z,436
2018-09-26T12:43:50.782Z,375
2018-09-26T12:44:51.110Z,409
2018-09-26T12:45:50.395Z,421
2018-09-26T12:46:51.183Z,435
2018-09-26T12:47:50.768Z,396
2018-09-26T12:48:51.124Z,422
2018-09-26T12:49:51.336Z,407
2018-09-26T12:51:11.943Z,398
2018-09-26T12:52:34.180Z,434
2018-09-26T12:53:35.047Z,446
2018-09-26T12:54:56.904Z,436
2018-09-26T12:56:20.330Z,430
2018-09-26T12:57:18.548Z,452
2018-09-26T12:58:18.569Z,450
2018-09-26T12:59:18.913Z,447
2018-09-26T13:00:18.339Z,427
2018-09-26T13:01:19.837Z,379
2018-09-26T13:02:19.385Z,370
2018-09-26T13:03:19.381Z,321
2018-09-26T13:04:18.968Z,294
2018-09-26T13:05:39.885Z,255
2018-09-26T13:07:01.267Z,299
2018-09-26T13:08:01.701Z,320
2018-09-26T13:09:23.369Z,276
2018-09-26T13:10:24.414Z,311
2018-09-26T13:11:23.925Z,375
2018-09-26T13:12:44.416Z,304
2018-09-26T13:13:45.052Z,296
2018-09-26T13:14:45.508Z,275
2018-09-26T13:15:44.988Z,300
2018-09-26T13:16:44.927Z,328
2018-09-26T13:17:45.506Z,298
2018-09-26T13:19:29.201Z,363
2018-09-26T13:20:30.336Z,335
2018-09-26T13:21:49.992Z,335
2018-09-26T13:22:50.340Z,365
2018-09-26T13:23:51.967Z,372
2018-09-26T13:24:50.381Z,378
2018-09-26T13:26:11.040Z,303
2018-09-26T13:27:11.529Z,275
2018-09-26T13:28:11.024Z,269
2018-09-26T13:29:11.577Z,290
2018-09-26T13:30:12.497Z,281
2018-09-26T13:31:11.947Z,310
2018-09-26T13:32:12.495Z,322
2018-09-26T13:33:11.168Z,320
2018-09-26T13:34:12.292Z,333
2018-09-26T13:35:32.791Z,353
2018-09-26T13:36:33.121Z,345
2018-09-26T13:37:33.444Z,365
2018-09-26T13:38:32.976Z,383
2018-09-26T13:39:55.199Z,381
2018-09-26T13:40:56.005Z,374
2018-09-26T13:41:56.587Z,364
2018-09-26T13:42:55.336Z,371
2018-09-26T13:43:56.450Z,390
2018-09-26T13:44:57.213Z,385
2018-09-26T13:46:16.912Z,375
2018-09-26T13:47:17.257Z,364
2018-09-26T13:48:17.696Z,358
2018-09-26T13:49:16.878Z,352
2018-09-26T13:50:17.377Z,321
2018-09-26T13:51:38.633Z,318
2018-09-26T13:52:39.188Z,329
2018-09-26T13:53:39.510Z,321
2018-09-26T13:54:39.011Z,305
2018-09-26T13:55:39.367Z,279
2018-09-26T13:56:38.892Z,247
2018-09-26T13:57:39.347Z,218
2018-09-26T13:58:39.489Z,251
2018-09-26T13:59:38.985Z,263
2018-09-26T14:00:39.373Z,283
2018-09-26T14:01:38.813Z,285
2018-09-26T14:02:39.348Z,286
2018-09-26T14:03:39.670Z,275
2018-09-26T14:04:38.862Z,261
2018-09-26T14:05:39.078Z,236
2018-09-26T14:06:39.621Z,264
2018-09-26T14:07:40.251Z,272
2018-09-26T14:08:40.456Z,259
2018-09-26T14:09:39.567Z,263
2018-09-26T14:10:40.126Z,270
2018-09-26T14:12:30.660Z,284
2018-09-26T14:13:26.936Z,274
2018-09-26T14:15:29.201Z,265
2018-09-26T14:16:32.283Z,269
2018-09-26T14:17:29.644Z,251
2018-09-26T14:18:29.217Z,234
2018-09-26T14:19:20.747Z,236
2018-09-26T14:20:20.070Z,235
2018-09-26T14:21:20.507Z,245
2018-09-26T14:22:19.954Z,220
2018-09-26T14:23:20.670Z,230
2018-09-26T14:24:19.920Z,231
2018-09-26T14:25:20.779Z,225
2018-09-26T14:26:42.442Z,216
2018-09-26T14:27:42.716Z,233
2018-09-26T14:28:43.158Z,215
2018-09-26T14:30:04.505Z,233
2018-09-26T14:31:05.768Z,231
2018-09-26T14:32:05.320Z,225
2018-09-26T14:33:04.805Z,250
2018-09-26T14:34:47.831Z,251
2018-09-26T14:35:49.410Z,242
2018-09-26T14:36:47.800Z,212
2018-09-26T14:37:48.813Z,216
2018-09-26T14:38:51.046Z,211
2018-09-26T14:39:48.924Z,259
2018-09-26T14:41:31.732Z,248
2018-09-26T14:42:32.500Z,264
2018-09-26T14:43:32.121Z,246
2018-09-26T14:44:32.872Z,237
2018-09-26T14:45:32.879Z,219
2018-09-26T14:46:32.417Z,221
2018-09-26T14:47:31.808Z,212
2018-09-26T14:48:32.342Z,198
2018-09-26T14:49:31.892Z,216
2018-09-26T14:50:56.834Z,211
2018-09-26T14:51:56.930Z,193
2018-09-26T14:52:55.590Z,182
2018-09-26T14:53:55.075Z,177
2018-09-26T14:54:54.485Z,119
2018-09-26T14:55:54.967Z,129
2018-09-26T14:56:54.546Z,118
2018-09-26T14:57:55.360Z,108
2018-09-26T14:58:55.425Z,121
2018-09-26T15:00:16.125Z,152
2018-09-26T15:01:16.684Z,136
2018-09-26T15:02:16.296Z,125
2018-09-26T15:03:22.550Z,132
2018-09-26T15:04:16.610Z,148